Aviation Digital Data Service (ADDS)

Output produced by METARs form (2131 UTC 20 August 2019)
found at http://www.aviationweather.gov/metar/data/
 
METAR text: USSS 202100Z 05006MPS 020V080 9999 BKN004 OVC010CB 16/16 Q1017 R08L/290035 TEMPO BKN002 BKN011CB RMK QFE742/0990
Conditions at: USSS (EKATERINBURG , RU) observed 2100 UTC 20 August 2019
Temperature: 16.0°C (61°F)
Dewpoint: 16.0°C (61°F) [RH = 100%]
Pressure (altimeter): 30.03 inches Hg (1017.0 mb)
Winds: from the NE (50 degrees) at 14 MPH (12 knots; 6.2 m/s)
Visibility: 6 or more miles (10+ km)
Ceiling: 400 feet AGL
Clouds: broken clouds at 400 feet AGL
overcast cloud deck at 1000 feet AGL
Weather: no significant weather observed at this time

METAR text: USSS 202030Z 05004MPS 030V090 3900 -SHRA BR BKN003 OVC010CB 17/17 Q1016 R08L/290035 TEMPO BKN002 BKN011CB RMK QFE742/0990
Conditions at: USSS (EKATERINBURG , RU) observed 2030 UTC 20 August 2019
Temperature: 17.0°C (63°F)
Dewpoint: 17.0°C (63°F) [RH = 100%]
Pressure (altimeter): 30.00 inches Hg (1016.0 mb)
Winds: from the NE (50 degrees) at 9 MPH (8 knots; 4.1 m/s)
Visibility: 2.42 miles (3.89 km)
Ceiling: 300 feet AGL
Clouds: broken clouds at 300 feet AGL
overcast cloud deck at 1000 feet AGL
Weather: -SHRA BR  (light rain showers, mist)

METAR text: USSS 202000Z 06006MPS 4900 -SHRA BKN004 OVC012CB 17/17 Q1016 R08L/290035 TEMPO 10005G17MPS 1000 TSRA BKN003 BKN011CB RMK QFE742/0989
Conditions at: USSS (EKATERINBURG , RU) observed 2000 UTC 20 August 2019
Temperature: 17.0°C (63°F)
Dewpoint: 17.0°C (63°F) [RH = 100%]
Pressure (altimeter): 30.00 inches Hg (1016.0 mb)
Winds: from the ENE (60 degrees) at 14 MPH (12 knots; 6.2 m/s)
Visibility: 3 miles ( 5 km)
Ceiling: 400 feet AGL
Clouds: broken clouds at 400 feet AGL
overcast cloud deck at 1200 feet AGL
Weather: -SHRA  (light rain showers)

METAR text: USSS 201930Z 06004MPS 8000 SCT005 BKN015CB 17/17 Q1017 R08L/290035 TEMPO 10005G18MPS 1000 TSRA BKN004 BKN011CB RMK QFE742/0990
Conditions at: USSS (EKATERINBURG , RU) observed 1930 UTC 20 August 2019
Temperature: 17.0°C (63°F)
Dewpoint: 17.0°C (63°F) [RH = 100%]
Pressure (altimeter): 30.03 inches Hg (1017.0 mb)
Winds: from the ENE (60 degrees) at 9 MPH (8 knots; 4.1 m/s)
Visibility: 5 miles ( 8 km)
Ceiling: 1500 feet AGL
Clouds: scattered clouds at 500 feet AGL
broken clouds at 1500 feet AGL
Weather: no significant weather observed at this time

METAR text: USSS 201900Z VRB01MPS 9999 -SHRA FEW005 BKN022CB 17/16 Q1017 R08L/290035 TEMPO 10005G18MPS 1000 TSRA BKN004 BKN011CB RMK QFE743/0990
Conditions at: USSS (EKATERINBURG , RU) observed 1900 UTC 20 August 2019
Temperature: 17.0°C (63°F)
Dewpoint: 16.0°C (61°F) [RH = 94%]
Pressure (altimeter): 30.03 inches Hg (1017.0 mb)
Winds: variable direction winds at 2 MPH (2 knots; 1.0 m/s)
Visibility: 6 or more miles (10+ km)
Ceiling: 2200 feet AGL
Clouds: few clouds at 500 feet AGL
broken clouds at 2200 feet AGL
Weather: -SHRA  (light rain showers)

METAR text: USSS 201830Z 22002MPS 180V250 9999 SCT005 BKN023CB 18/18 Q1017 RETS R08L/290035 TEMPO 10005G18MPS 1000 TSRA BKN004 BKN011CB RMK QFE743/0991
Conditions at: USSS (EKATERINBURG , RU) observed 1830 UTC 20 August 2019
Temperature: 18.0°C (64°F)
Dewpoint: 18.0°C (64°F) [RH = 100%]
Pressure (altimeter): 30.03 inches Hg (1017.0 mb)
Winds: from the SW (220 degrees) at 5 MPH (4 knots; 2.1 m/s)
Visibility: 6 or more miles (10+ km)
Ceiling: 2300 feet AGL
Clouds: scattered clouds at 500 feet AGL
broken clouds at 2300 feet AGL
Weather: no significant weather observed at this time

METAR text: USSS 201800Z 10004MPS 9000 -TSRA BKN007 OVC016CB 18/18 Q1017 R08L/010060 TEMPO 10005G18MPS 1000 TSRA BKN004 BKN011CB RMK QFE743/0991
Conditions at: USSS (EKATERINBURG , RU) observed 1800 UTC 20 August 2019
Temperature: 18.0°C (64°F)
Dewpoint: 18.0°C (64°F) [RH = 100%]
Pressure (altimeter): 30.03 inches Hg (1017.0 mb)
Winds: from the E (100 degrees) at 9 MPH (8 knots; 4.1 m/s)
Visibility: 6 miles ( 9 km)
Ceiling: 700 feet AGL
Clouds: broken clouds at 700 feet AGL
overcast cloud deck at 1600 feet AGL
Weather: -TSRA  (light rain associated with thunderstorm(s))

METAR text: USSS 201730Z 14005MPS 9999 TS SCT006 BKN020CB 18/18 Q1018 R08L/010060 TEMPO 10005G18MPS 1000 TSRA BKN004 BKN011CB RMK QFE743/0991
Conditions at: USSS (EKATERINBURG , RU) observed 1730 UTC 20 August 2019
Temperature: 18.0°C (64°F)
Dewpoint: 18.0°C (64°F) [RH = 100%]
Pressure (altimeter): 30.06 inches Hg (1018.0 mb)
Winds: from the SE (140 degrees) at 12 MPH (10 knots; 5.1 m/s)
Visibility: 6 or more miles (10+ km)
Ceiling: 2000 feet AGL
Clouds: scattered clouds at 600 feet AGL
broken clouds at 2000 feet AGL
Weather: TS  (thunderstorm)

METAR text: USSS 201700Z 09004MPS 9999 SCT008 BKN025CB 18/18 Q1018 R08L/010060 TEMPO 10005G15MPS -TSRA BKN006 BKN011CB RMK QFE743/0991
Conditions at: USSS (EKATERINBURG , RU) observed 1700 UTC 20 August 2019
Temperature: 18.0°C (64°F)
Dewpoint: 18.0°C (64°F) [RH = 100%]
Pressure (altimeter): 30.06 inches Hg (1018.0 mb)
Winds: from the E (90 degrees) at 9 MPH (8 knots; 4.1 m/s)
Visibility: 6 or more miles (10+ km)
Ceiling: 2500 feet AGL
Clouds: scattered clouds at 800 feet AGL
broken clouds at 2500 feet AGL
Weather: no significant weather observed at this time

METAR text: USSS 201630Z 08004MPS 9999 FEW008 BKN016CB 18/18 Q1017 R08L/010060 TEMPO 12006G17MPS -TSRAGR BKN007 BKN011CB RMK QFE743/0991
Conditions at: USSS (EKATERINBURG , RU) observed 1630 UTC 20 August 2019
Temperature: 18.0°C (64°F)
Dewpoint: 18.0°C (64°F) [RH = 100%]
Pressure (altimeter): 30.03 inches Hg (1017.0 mb)
Winds: from the E (80 degrees) at 9 MPH (8 knots; 4.1 m/s)
Visibility: 6 or more miles (10+ km)
Ceiling: 1600 feet AGL
Clouds: few clouds at 800 feet AGL
broken clouds at 1600 feet AGL
Weather: no significant weather observed at this time

METAR text: USSS 201600Z 08005MPS 9999 BKN009CB 19/18 Q1017 R08L/010060 TEMPO 12006G17MPS -TSRAGR BKN007 BKN011CB RMK QFE743/0990
Conditions at: USSS (EKATERINBURG , RU) observed 1600 UTC 20 August 2019
Temperature: 19.0°C (66°F)
Dewpoint: 18.0°C (64°F) [RH = 94%]
Pressure (altimeter): 30.03 inches Hg (1017.0 mb)
Winds: from the E (80 degrees) at 12 MPH (10 knots; 5.1 m/s)
Visibility: 6 or more miles (10+ km)
Ceiling: 900 feet AGL
Clouds: broken clouds at 900 feet AGL
Weather: no significant weather observed at this time

METAR text: USSS 201530Z 06004MPS 9999 FEW009 BKN021CB 18/18 Q1017 R08L/010060 TEMPO 12006G17MPS -TSRAGR BKN007 BKN011CB RMK QFE742/0990
Conditions at: USSS (EKATERINBURG , RU) observed 1530 UTC 20 August 2019
Temperature: 18.0°C (64°F)
Dewpoint: 18.0°C (64°F) [RH = 100%]
Pressure (altimeter): 30.03 inches Hg (1017.0 mb)
Winds: from the ENE (60 degrees) at 9 MPH (8 knots; 4.1 m/s)
Visibility: 6 or more miles (10+ km)
Ceiling: 2100 feet AGL
Clouds: few clouds at 900 feet AGL
broken clouds at 2100 feet AGL
Weather: no significant weather observed at this time

METAR text: USSS 201500Z 08004MPS 9999 SCT026CB 19/18 Q1017 R08L/010060 TEMPO 12006G17MPS -TSRAGR RMK QFE743/0990
Conditions at: USSS (EKATERINBURG , RU) observed 1500 UTC 20 August 2019
Temperature: 19.0°C (66°F)
Dewpoint: 18.0°C (64°F) [RH = 94%]
Pressure (altimeter): 30.03 inches Hg (1017.0 mb)
Winds: from the E (80 degrees) at 9 MPH (8 knots; 4.1 m/s)
Visibility: 6 or more miles (10+ km)
Ceiling: at least 12,000 feet AGL
Clouds: scattered clouds at 2600 feet AGL
Weather: no significant weather observed at this time

METAR text: USSS 201430Z 07005MPS 9999 BKN024CB 20/18 Q1017 R08L/010060 TEMPO 12006G17MPS -TSRAGR RMK QFE743/0990
Conditions at: USSS (EKATERINBURG , RU) observed 1430 UTC 20 August 2019
Temperature: 20.0°C (68°F)
Dewpoint: 18.0°C (64°F) [RH = 88%]
Pressure (altimeter): 30.03 inches Hg (1017.0 mb)
Winds: from the ENE (70 degrees) at 12 MPH (10 knots; 5.1 m/s)
Visibility: 6 or more miles (10+ km)
Ceiling: 2400 feet AGL
Clouds: broken clouds at 2400 feet AGL
Weather: no significant weather observed at this time

METAR text: USSS 201400Z 08003MPS 9999 SCT021CB 21/19 Q1017 R26R/010060 TEMPO 12006G17MPS -TSRAGR RMK QFE742/0990
Conditions at: USSS (EKATERINBURG , RU) observed 1400 UTC 20 August 2019
Temperature: 21.0°C (70°F)
Dewpoint: 19.0°C (66°F) [RH = 88%]
Pressure (altimeter): 30.03 inches Hg (1017.0 mb)
Winds: from the E (80 degrees) at 7 MPH (6 knots; 3.1 m/s)
Visibility: 6 or more miles (10+ km)
Ceiling: at least 12,000 feet AGL
Clouds: scattered clouds at 2100 feet AGL
Weather: no significant weather observed at this time

METAR text: USSS 201330Z 12002MPS 9999 BKN035CB 21/19 Q1017 R26R/010060 TEMPO 14006G17MPS -TSRA RMK QFE742/0990
Conditions at: USSS (EKATERINBURG , RU) observed 1330 UTC 20 August 2019
Temperature: 21.0°C (70°F)
Dewpoint: 19.0°C (66°F) [RH = 88%]
Pressure (altimeter): 30.03 inches Hg (1017.0 mb)
Winds: from the ESE (120 degrees) at 5 MPH (4 knots; 2.1 m/s)
Visibility: 6 or more miles (10+ km)
Ceiling: 3500 feet AGL
Clouds: broken clouds at 3500 feet AGL
Weather: no significant weather observed at this time

METAR text: USSS 201300Z 11003MPS 090V150 9999 SCT035CB 21/19 Q1017 R26R/010060 TEMPO 14006G15MPS -TSRA SCT011CB RMK QFE742/0990
Conditions at: USSS (EKATERINBURG , RU) observed 1300 UTC 20 August 2019
Temperature: 21.0°C (70°F)
Dewpoint: 19.0°C (66°F) [RH = 88%]
Pressure (altimeter): 30.03 inches Hg (1017.0 mb)
Winds: from the ESE (110 degrees) at 7 MPH (6 knots; 3.1 m/s)
Visibility: 6 or more miles (10+ km)
Ceiling: at least 12,000 feet AGL
Clouds: scattered clouds at 3500 feet AGL
Weather: no significant weather observed at this time

METAR text: USSS 201230Z 13002MPS 9999 SCT016CB 21/18 Q1018 R26R/010060 TEMPO 14006G15MPS -TSRA SCT011CB RMK QFE742/0990
Conditions at: USSS (EKATERINBURG , RU) observed 1230 UTC 20 August 2019
Temperature: 21.0°C (70°F)
Dewpoint: 18.0°C (64°F) [RH = 83%]
Pressure (altimeter): 30.06 inches Hg (1018.0 mb)
Winds: from the SE (130 degrees) at 5 MPH (4 knots; 2.1 m/s)
Visibility: 6 or more miles (10+ km)
Ceiling: at least 12,000 feet AGL
Clouds: scattered clouds at 1600 feet AGL
Weather: no significant weather observed at this time

METAR text: USSS 201200Z 11003MPS 9999 SCT016 21/18 Q1018 R26R/010060 NOSIG RMK QFE742/0990
Conditions at: USSS (EKATERINBURG , RU) observed 1200 UTC 20 August 2019
Temperature: 21.0°C (70°F)
Dewpoint: 18.0°C (64°F) [RH = 83%]
Pressure (altimeter): 30.06 inches Hg (1018.0 mb)
Winds: from the ESE (110 degrees) at 7 MPH (6 knots; 3.1 m/s)
Visibility: 6 or more miles (10+ km)
Ceiling: at least 12,000 feet AGL
Clouds: scattered clouds at 1600 feet AGL
Weather: no significant weather observed at this time

METAR text: USSS 201130Z 10002MPS 050V140 9999 SCT016 22/18 Q1018 R26R/250042 NOSIG RMK QFE742/0990
Conditions at: USSS (EKATERINBURG , RU) observed 1130 UTC 20 August 2019
Temperature: 22.0°C (72°F)
Dewpoint: 18.0°C (64°F) [RH = 78%]
Pressure (altimeter): 30.06 inches Hg (1018.0 mb)
Winds: from the E (100 degrees) at 5 MPH (4 knots; 2.1 m/s)
Visibility: 6 or more miles (10+ km)
Ceiling: at least 12,000 feet AGL
Clouds: scattered clouds at 1600 feet AGL
Weather: no significant weather observed at this time

METAR text: USSS 201100Z 08003MPS 060V120 9999 BKN018 21/18 Q1018 R26R/250042 NOSIG RMK QFE742/0990
Conditions at: USSS (EKATERINBURG , RU) observed 1100 UTC 20 August 2019
Temperature: 21.0°C (70°F)
Dewpoint: 18.0°C (64°F) [RH = 83%]
Pressure (altimeter): 30.06 inches Hg (1018.0 mb)
Winds: from the E (80 degrees) at 7 MPH (6 knots; 3.1 m/s)
Visibility: 6 or more miles (10+ km)
Ceiling: 1800 feet AGL
Clouds: broken clouds at 1800 feet AGL
Weather: no significant weather observed at this time

METAR text: USSS 201030Z 12003MPS 9999 BKN014 21/19 Q1018 R26R/250042 NOSIG RMK QFE743/0990
Conditions at: USSS (EKATERINBURG , RU) observed 1030 UTC 20 August 2019
Temperature: 21.0°C (70°F)
Dewpoint: 19.0°C (66°F) [RH = 88%]
Pressure (altimeter): 30.06 inches Hg (1018.0 mb)
Winds: from the ESE (120 degrees) at 7 MPH (6 knots; 3.1 m/s)
Visibility: 6 or more miles (10+ km)
Ceiling: 1400 feet AGL
Clouds: broken clouds at 1400 feet AGL
Weather: no significant weather observed at this time

METAR text: USSS 201000Z 16004MPS 9999 BKN013 21/19 Q1018 R26R/250042 NOSIG RMK QFE743/0991
Conditions at: USSS (EKATERINBURG , RU) observed 1000 UTC 20 August 2019
Temperature: 21.0°C (70°F)
Dewpoint: 19.0°C (66°F) [RH = 88%]
Pressure (altimeter): 30.06 inches Hg (1018.0 mb)
Winds: from the SSE (160 degrees) at 9 MPH (8 knots; 4.1 m/s)
Visibility: 6 or more miles (10+ km)
Ceiling: 1300 feet AGL
Clouds: broken clouds at 1300 feet AGL
Weather: no significant weather observed at this time

METAR text: USSS 200930Z 17005MPS 9999 BKN013 21/19 Q1018 R26R/250042 NOSIG RMK QFE743/0991
Conditions at: USSS (EKATERINBURG , RU) observed 0930 UTC 20 August 2019
Temperature: 21.0°C (70°F)
Dewpoint: 19.0°C (66°F) [RH = 88%]
Pressure (altimeter): 30.06 inches Hg (1018.0 mb)
Winds: from the S (170 degrees) at 12 MPH (10 knots; 5.1 m/s)
Visibility: 6 or more miles (10+ km)
Ceiling: 1300 feet AGL
Clouds: broken clouds at 1300 feet AGL
Weather: no significant weather observed at this time

METAR text: USSS 200900Z 17004MPS 140V220 9999 BKN012 21/19 Q1019 R26R/290036 NOSIG RMK QFE743/0991
Conditions at: USSS (EKATERINBURG , RU) observed 0900 UTC 20 August 2019
Temperature: 21.0°C (70°F)
Dewpoint: 19.0°C (66°F) [RH = 88%]
Pressure (altimeter): 30.09 inches Hg (1019.0 mb)
Winds: from the S (170 degrees) at 9 MPH (8 knots; 4.1 m/s)
Visibility: 6 or more miles (10+ km)
Ceiling: 1200 feet AGL
Clouds: broken clouds at 1200 feet AGL
Weather: no significant weather observed at this time

METAR text: USSS 200830Z 16003MPS 130V220 9999 SCT011 BKN033CB 20/19 Q1019 R26R/290036 NOSIG RMK QFE743/0991
Conditions at: USSS (EKATERINBURG , RU) observed 0830 UTC 20 August 2019
Temperature: 20.0°C (68°F)
Dewpoint: 19.0°C (66°F) [RH = 94%]
Pressure (altimeter): 30.09 inches Hg (1019.0 mb)
Winds: from the SSE (160 degrees) at 7 MPH (6 knots; 3.1 m/s)
Visibility: 6 or more miles (10+ km)
Ceiling: 3300 feet AGL
Clouds: scattered clouds at 1100 feet AGL
broken clouds at 3300 feet AGL
Weather: no significant weather observed at this time

METAR text: USSS 200800Z 19005MPS 9999 FEW010 SCT026CB 20/18 Q1019 WS R26R R26R/290036 TEMPO BKN006 SCT020CB RMK QFE743/0991
Conditions at: USSS (EKATERINBURG , RU) observed 0800 UTC 20 August 2019
Temperature: 20.0°C (68°F)
Dewpoint: 18.0°C (64°F) [RH = 88%]
Pressure (altimeter): 30.09 inches Hg (1019.0 mb)
Winds: from the S (190 degrees) at 12 MPH (10 knots; 5.1 m/s)
Visibility: 6 or more miles (10+ km)
Ceiling: at least 12,000 feet AGL
Clouds: few clouds at 1000 feet AGL
scattered clouds at 2600 feet AGL
Weather: no significant weather observed at this time

METAR text: USSS 200730Z 17006MPS 9999 -SHRA FEW008 SCT026CB 19/19 Q1019 R08L/290040 TEMPO BKN006 SCT020CB RMK QFE744/0993
Conditions at: USSS (EKATERINBURG , RU) observed 0730 UTC 20 August 2019
Temperature: 19.0°C (66°F)
Dewpoint: 19.0°C (66°F) [RH = 100%]
Pressure (altimeter): 30.09 inches Hg (1019.0 mb)
Winds: from the S (170 degrees) at 14 MPH (12 knots; 6.2 m/s)
Visibility: 6 or more miles (10+ km)
Ceiling: at least 12,000 feet AGL
Clouds: few clouds at 800 feet AGL
scattered clouds at 2600 feet AGL
Weather: -SHRA  (light rain showers)

METAR text: USSS 200700Z 16005MPS 9999 -SHRA SCT040CB 19/17 Q1020 R08L/290040 NOSIG RMK QFE745/0993
Conditions at: USSS (EKATERINBURG , RU) observed 0700 UTC 20 August 2019
Temperature: 19.0°C (66°F)
Dewpoint: 17.0°C (63°F) [RH = 88%]
Pressure (altimeter): 30.12 inches Hg (1020.0 mb)
Winds: from the SSE (160 degrees) at 12 MPH (10 knots; 5.1 m/s)
Visibility: 6 or more miles (10+ km)
Ceiling: at least 12,000 feet AGL
Clouds: scattered clouds at 4000 feet AGL
Weather: -SHRA  (light rain showers)

METAR text: USSS 200630Z 17005MPS 9999 SCT050CB 19/17 Q1020 R08L/290040 NOSIG RMK QFE745/0993
Conditions at: USSS (EKATERINBURG , RU) observed 0630 UTC 20 August 2019
Temperature: 19.0°C (66°F)
Dewpoint: 17.0°C (63°F) [RH = 88%]
Pressure (altimeter): 30.12 inches Hg (1020.0 mb)
Winds: from the S (170 degrees) at 12 MPH (10 knots; 5.1 m/s)
Visibility: 6 or more miles (10+ km)
Ceiling: at least 12,000 feet AGL
Clouds: scattered clouds at 5000 feet AGL
Weather: no significant weather observed at this time

METAR text: USSS 200600Z 16005MPS 9999 -SHRA SCT036CB 18/17 Q1020 R08L/290040 NOSIG RMK QFE745/0993
Conditions at: USSS (EKATERINBURG , RU) observed 0600 UTC 20 August 2019
Temperature: 18.0°C (64°F)
Dewpoint: 17.0°C (63°F) [RH = 94%]
Pressure (altimeter): 30.12 inches Hg (1020.0 mb)
Winds: from the SSE (160 degrees) at 12 MPH (10 knots; 5.1 m/s)
Visibility: 6 or more miles (10+ km)
Ceiling: at least 12,000 feet AGL
Clouds: scattered clouds at 3600 feet AGL
Weather: -SHRA  (light rain showers)

METAR text: USSS 200530Z 16004MPS CAVOK 17/17 Q1021 R08L/290035 NOSIG RMK QFE745/0994
Conditions at: USSS (EKATERINBURG , RU) observed 0530 UTC 20 August 2019
Temperature: 17.0°C (63°F)
Dewpoint: 17.0°C (63°F) [RH = 100%]
Pressure (altimeter): 30.15 inches Hg (1021.0 mb)
Winds: from the SSE (160 degrees) at 9 MPH (8 knots; 4.1 m/s)
Visibility: 6 or more miles (10+ km)
Ceiling: ceiling and visibility are OK
Clouds: unknown
Weather: no significant weather observed at this time

METAR text: USSS 200500Z 16003MPS CAVOK 16/16 Q1021 R08L/290035 NOSIG RMK QFE746/0995
Conditions at: USSS (EKATERINBURG , RU) observed 0500 UTC 20 August 2019
Temperature: 16.0°C (61°F)
Dewpoint: 16.0°C (61°F) [RH = 100%]
Pressure (altimeter): 30.15 inches Hg (1021.0 mb)
Winds: from the SSE (160 degrees) at 7 MPH (6 knots; 3.1 m/s)
Visibility: 6 or more miles (10+ km)
Ceiling: ceiling and visibility are OK
Clouds: unknown
Weather: no significant weather observed at this time

METAR text: USSS 200430Z 14005MPS 7000 -SHRA SCT040CB 16/16 Q1022 R08L/290035 NOSIG RMK QFE746/0995
Conditions at: USSS (EKATERINBURG , RU) observed 0430 UTC 20 August 2019
Temperature: 16.0°C (61°F)
Dewpoint: 16.0°C (61°F) [RH = 100%]
Pressure (altimeter): 30.18 inches Hg (1022.0 mb)
Winds: from the SE (140 degrees) at 12 MPH (10 knots; 5.1 m/s)
Visibility: 4 miles ( 7 km)
Ceiling: at least 12,000 feet AGL
Clouds: scattered clouds at 4000 feet AGL
Weather: -SHRA  (light rain showers)

METAR text: USSS 200400Z 15002MPS 8000 -SHRA SCT040CB 15/15 Q1023 R08L/290035 NOSIG RMK QFE747/0996
Conditions at: USSS (EKATERINBURG , RU) observed 0400 UTC 20 August 2019
Temperature: 15.0°C (59°F)
Dewpoint: 15.0°C (59°F) [RH = 100%]
Pressure (altimeter): 30.21 inches Hg (1023.0 mb)
Winds: from the SSE (150 degrees) at 5 MPH (4 knots; 2.1 m/s)
Visibility: 5 miles ( 8 km)
Ceiling: at least 12,000 feet AGL
Clouds: scattered clouds at 4000 feet AGL
Weather: -SHRA  (light rain showers)

METAR text: USSS 200330Z 00000MPS 7000 -SHRA SCT036CB 15/15 Q1024 R08L/290035 NOSIG RMK QFE747/0997
Conditions at: USSS (EKATERINBURG , RU) observed 0330 UTC 20 August 2019
Temperature: 15.0°C (59°F)
Dewpoint: 15.0°C (59°F) [RH = 100%]
Pressure (altimeter): 30.24 inches Hg (1024.0 mb)
Winds: calm
Visibility: 4 miles ( 7 km)
Ceiling: at least 12,000 feet AGL
Clouds: scattered clouds at 3600 feet AGL
Weather: -SHRA  (light rain showers)

METAR text: USSS 200300Z 13002MPS 8000 -SHRA SCT033CB 15/15 Q1023 R08L/290035 NOSIG RMK QFE747/0996
Conditions at: USSS (EKATERINBURG , RU) observed 0300 UTC 20 August 2019
Temperature: 15.0°C (59°F)
Dewpoint: 15.0°C (59°F) [RH = 100%]
Pressure (altimeter): 30.21 inches Hg (1023.0 mb)
Winds: from the SE (130 degrees) at 5 MPH (4 knots; 2.1 m/s)
Visibility: 5 miles ( 8 km)
Ceiling: at least 12,000 feet AGL
Clouds: scattered clouds at 3300 feet AGL
Weather: -SHRA  (light rain showers)

METAR text: USSS 200230Z VRB01MPS 8000 -SHRA SCT033CB 15/15 Q1023 R08L/290035 NOSIG RMK QFE747/0997
Conditions at: USSS (EKATERINBURG , RU) observed 0230 UTC 20 August 2019
Temperature: 15.0°C (59°F)
Dewpoint: 15.0°C (59°F) [RH = 100%]
Pressure (altimeter): 30.21 inches Hg (1023.0 mb)
Winds: variable direction winds at 2 MPH (2 knots; 1.0 m/s)
Visibility: 5 miles ( 8 km)
Ceiling: at least 12,000 feet AGL
Clouds: scattered clouds at 3300 feet AGL
Weather: -SHRA  (light rain showers)

METAR text: USSS 200200Z 12002MPS 9000 -SHRA SCT033CB 15/15 Q1023 R08L/290035 NOSIG RMK QFE747/0996
Conditions at: USSS (EKATERINBURG , RU) observed 0200 UTC 20 August 2019
Temperature: 15.0°C (59°F)
Dewpoint: 15.0°C (59°F) [RH = 100%]
Pressure (altimeter): 30.21 inches Hg (1023.0 mb)
Winds: from the ESE (120 degrees) at 5 MPH (4 knots; 2.1 m/s)
Visibility: 6 miles ( 9 km)
Ceiling: at least 12,000 feet AGL
Clouds: scattered clouds at 3300 feet AGL
Weather: -SHRA  (light rain showers)

METAR text: USSS 200130Z 10003MPS 9999 -SHRA SCT033CB 15/15 Q1023 R08L/290035 NOSIG RMK QFE747/0997
Conditions at: USSS (EKATERINBURG , RU) observed 0130 UTC 20 August 2019
Temperature: 15.0°C (59°F)
Dewpoint: 15.0°C (59°F) [RH = 100%]
Pressure (altimeter): 30.21 inches Hg (1023.0 mb)
Winds: from the E (100 degrees) at 7 MPH (6 knots; 3.1 m/s)
Visibility: 6 or more miles (10+ km)
Ceiling: at least 12,000 feet AGL
Clouds: scattered clouds at 3300 feet AGL
Weather: -SHRA  (light rain showers)

METAR text: USSS 200100Z 10002MPS 9999 -SHRA SCT033CB 15/15 Q1024 R08L/290035 NOSIG RMK QFE748/0997
Conditions at: USSS (EKATERINBURG , RU) observed 0100 UTC 20 August 2019
Temperature: 15.0°C (59°F)
Dewpoint: 15.0°C (59°F) [RH = 100%]
Pressure (altimeter): 30.24 inches Hg (1024.0 mb)
Winds: from the E (100 degrees) at 5 MPH (4 knots; 2.1 m/s)
Visibility: 6 or more miles (10+ km)
Ceiling: at least 12,000 feet AGL
Clouds: scattered clouds at 3300 feet AGL
Weather: -SHRA  (light rain showers)

METAR text: USSS 200030Z 12002MPS 9999 -SHRA SCT033CB 15/15 Q1024 R08L/290035 NOSIG RMK QFE748/0997
Conditions at: USSS (EKATERINBURG , RU) observed 0030 UTC 20 August 2019
Temperature: 15.0°C (59°F)
Dewpoint: 15.0°C (59°F) [RH = 100%]
Pressure (altimeter): 30.24 inches Hg (1024.0 mb)
Winds: from the ESE (120 degrees) at 5 MPH (4 knots; 2.1 m/s)
Visibility: 6 or more miles (10+ km)
Ceiling: at least 12,000 feet AGL
Clouds: scattered clouds at 3300 feet AGL
Weather: -SHRA  (light rain showers)

METAR text: USSS 200000Z 14003MPS 9999 SCT033CB 15/15 Q1024 R08L/290035 NOSIG RMK QFE748/0997
Conditions at: USSS (EKATERINBURG , RU) observed 0000 UTC 20 August 2019
Temperature: 15.0°C (59°F)
Dewpoint: 15.0°C (59°F) [RH = 100%]
Pressure (altimeter): 30.24 inches Hg (1024.0 mb)
Winds: from the SE (140 degrees) at 7 MPH (6 knots; 3.1 m/s)
Visibility: 6 or more miles (10+ km)
Ceiling: at least 12,000 feet AGL
Clouds: scattered clouds at 3300 feet AGL
Weather: no significant weather observed at this time

METAR text: USSS 192330Z 13003MPS 9999 -SHRA SCT030CB 15/15 Q1024 R08L/290035 NOSIG RMK QFE748/0997
Conditions at: USSS (EKATERINBURG , RU) observed 2330 UTC 19 August 2019
Temperature: 15.0°C (59°F)
Dewpoint: 15.0°C (59°F) [RH = 100%]
Pressure (altimeter): 30.24 inches Hg (1024.0 mb)
Winds: from the SE (130 degrees) at 7 MPH (6 knots; 3.1 m/s)
Visibility: 6 or more miles (10+ km)
Ceiling: at least 12,000 feet AGL
Clouds: scattered clouds at 3000 feet AGL
Weather: -SHRA  (light rain showers)

METAR text: USSS 192300Z 11002MPS 9999 -SHRA BKN030CB 15/15 Q1024 R08L/290035 NOSIG RMK QFE748/0997
Conditions at: USSS (EKATERINBURG , RU) observed 2300 UTC 19 August 2019
Temperature: 15.0°C (59°F)
Dewpoint: 15.0°C (59°F) [RH = 100%]
Pressure (altimeter): 30.24 inches Hg (1024.0 mb)
Winds: from the ESE (110 degrees) at 5 MPH (4 knots; 2.1 m/s)
Visibility: 6 or more miles (10+ km)
Ceiling: 3000 feet AGL
Clouds: broken clouds at 3000 feet AGL
Weather: -SHRA  (light rain showers)

METAR text: USSS 192230Z 11002MPS 9999 -SHRA BKN022CB 15/15 Q1025 R08L/290035 NOSIG RMK QFE748/0998
Conditions at: USSS (EKATERINBURG , RU) observed 2230 UTC 19 August 2019
Temperature: 15.0°C (59°F)
Dewpoint: 15.0°C (59°F) [RH = 100%]
Pressure (altimeter): 30.27 inches Hg (1025.0 mb)
Winds: from the ESE (110 degrees) at 5 MPH (4 knots; 2.1 m/s)
Visibility: 6 or more miles (10+ km)
Ceiling: 2200 feet AGL
Clouds: broken clouds at 2200 feet AGL
Weather: -SHRA  (light rain showers)

METAR text: USSS 192200Z 11003MPS 9999 -SHRA BKN022CB 16/15 Q1025 R08L/290035 NOSIG RMK QFE748/0998
Conditions at: USSS (EKATERINBURG , RU) observed 2200 UTC 19 August 2019
Temperature: 16.0°C (61°F)
Dewpoint: 15.0°C (59°F) [RH = 94%]
Pressure (altimeter): 30.27 inches Hg (1025.0 mb)
Winds: from the ESE (110 degrees) at 7 MPH (6 knots; 3.1 m/s)
Visibility: 6 or more miles (10+ km)
Ceiling: 2200 feet AGL
Clouds: broken clouds at 2200 feet AGL
Weather: -SHRA  (light rain showers)

METAR text: USSS 192130Z 10003MPS 9999 -SHRA BKN022CB 16/16 Q1025 R08L/290035 NOSIG RMK QFE748/0998
Conditions at: USSS (EKATERINBURG , RU) observed 2130 UTC 19 August 2019
Temperature: 16.0°C (61°F)
Dewpoint: 16.0°C (61°F) [RH = 100%]
Pressure (altimeter): 30.27 inches Hg (1025.0 mb)
Winds: from the E (100 degrees) at 7 MPH (6 knots; 3.1 m/s)
Visibility: 6 or more miles (10+ km)
Ceiling: 2200 feet AGL
Clouds: broken clouds at 2200 feet AGL
Weather: -SHRA  (light rain showers)

METAR text: USSS 192100Z 08003MPS 9999 -SHRA BKN021CB 16/16 Q1025 R08L/290035 NOSIG RMK QFE748/0998
Conditions at: USSS (EKATERINBURG , RU) observed 2100 UTC 19 August 2019
Temperature: 16.0°C (61°F)
Dewpoint: 16.0°C (61°F) [RH = 100%]
Pressure (altimeter): 30.27 inches Hg (1025.0 mb)
Winds: from the E (80 degrees) at 7 MPH (6 knots; 3.1 m/s)
Visibility: 6 or more miles (10+ km)
Ceiling: 2100 feet AGL
Clouds: broken clouds at 2100 feet AGL
Weather: -SHRA  (light rain showers)

METAR text: USSS 192030Z 06003MPS 8000 BKN022CB 16/16 Q1025 R08L/290035 NOSIG RMK QFE749/0998
Conditions at: USSS (EKATERINBURG , RU) observed 2030 UTC 19 August 2019
Temperature: 16.0°C (61°F)
Dewpoint: 16.0°C (61°F) [RH = 100%]
Pressure (altimeter): 30.27 inches Hg (1025.0 mb)
Winds: from the ENE (60 degrees) at 7 MPH (6 knots; 3.1 m/s)
Visibility: 5 miles ( 8 km)
Ceiling: 2200 feet AGL
Clouds: broken clouds at 2200 feet AGL
Weather: no significant weather observed at this time

METAR text: USSS 192000Z 07002MPS 9999 -SHRA BKN021CB 16/16 Q1025 R08L/290035 NOSIG RMK QFE749/0998
Conditions at: USSS (EKATERINBURG , RU) observed 2000 UTC 19 August 2019
Temperature: 16.0°C (61°F)
Dewpoint: 16.0°C (61°F) [RH = 100%]
Pressure (altimeter): 30.27 inches Hg (1025.0 mb)
Winds: from the ENE (70 degrees) at 5 MPH (4 knots; 2.1 m/s)
Visibility: 6 or more miles (10+ km)
Ceiling: 2100 feet AGL
Clouds: broken clouds at 2100 feet AGL
Weather: -SHRA  (light rain showers)

METAR text: USSS 191930Z 13002MPS 100V160 9000 -SHRA BKN019CB 16/16 Q1025 R08L/290035 NOSIG RMK QFE749/0998
Conditions at: USSS (EKATERINBURG , RU) observed 1930 UTC 19 August 2019
Temperature: 16.0°C (61°F)
Dewpoint: 16.0°C (61°F) [RH = 100%]
Pressure (altimeter): 30.27 inches Hg (1025.0 mb)
Winds: from the SE (130 degrees) at 5 MPH (4 knots; 2.1 m/s)
Visibility: 6 miles ( 9 km)
Ceiling: 1900 feet AGL
Clouds: broken clouds at 1900 feet AGL
Weather: -SHRA  (light rain showers)

METAR text: USSS 191900Z 12003MPS 9000 -SHRA SCT033CB 16/16 Q1025 R08L/290035 NOSIG RMK QFE749/0998
Conditions at: USSS (EKATERINBURG , RU) observed 1900 UTC 19 August 2019
Temperature: 16.0°C (61°F)
Dewpoint: 16.0°C (61°F) [RH = 100%]
Pressure (altimeter): 30.27 inches Hg (1025.0 mb)
Winds: from the ESE (120 degrees) at 7 MPH (6 knots; 3.1 m/s)
Visibility: 6 miles ( 9 km)
Ceiling: at least 12,000 feet AGL
Clouds: scattered clouds at 3300 feet AGL
Weather: -SHRA  (light rain showers)

METAR text: USSS 191830Z 10002MPS 9000 -SHRA SCT038CB 16/16 Q1026 R08L/290035 NOSIG RMK QFE749/0999
Conditions at: USSS (EKATERINBURG , RU) observed 1830 UTC 19 August 2019
Temperature: 16.0°C (61°F)
Dewpoint: 16.0°C (61°F) [RH = 100%]
Pressure (altimeter): 30.30 inches Hg (1026.0 mb)
Winds: from the E (100 degrees) at 5 MPH (4 knots; 2.1 m/s)
Visibility: 6 miles ( 9 km)
Ceiling: at least 12,000 feet AGL
Clouds: scattered clouds at 3800 feet AGL
Weather: -SHRA  (light rain showers)

METAR text: USSS 191800Z 11001MPS 9999 SCT043CB 16/16 Q1026 R08L/290035 NOSIG RMK QFE749/0999
Conditions at: USSS (EKATERINBURG , RU) observed 1800 UTC 19 August 2019
Temperature: 16.0°C (61°F)
Dewpoint: 16.0°C (61°F) [RH = 100%]
Pressure (altimeter): 30.30 inches Hg (1026.0 mb)
Winds: from the ESE (110 degrees) at 2 MPH (2 knots; 1.0 m/s)
Visibility: 6 or more miles (10+ km)
Ceiling: at least 12,000 feet AGL
Clouds: scattered clouds at 4300 feet AGL
Weather: no significant weather observed at this time

METAR text: USSS 191730Z 00000MPS 9999 -SHRA SCT043CB 16/16 Q1026 R08L/290035 NOSIG RMK QFE749/0999
Conditions at: USSS (EKATERINBURG , RU) observed 1730 UTC 19 August 2019
Temperature: 16.0°C (61°F)
Dewpoint: 16.0°C (61°F) [RH = 100%]
Pressure (altimeter): 30.30 inches Hg (1026.0 mb)
Winds: calm
Visibility: 6 or more miles (10+ km)
Ceiling: at least 12,000 feet AGL
Clouds: scattered clouds at 4300 feet AGL
Weather: -SHRA  (light rain showers)

METAR text: USSS 191700Z 12002MPS 090V160 9999 SCT043CB 16/16 Q1026 R08L/290035 NOSIG RMK QFE749/0999
Conditions at: USSS (EKATERINBURG , RU) observed 1700 UTC 19 August 2019
Temperature: 16.0°C (61°F)
Dewpoint: 16.0°C (61°F) [RH = 100%]
Pressure (altimeter): 30.30 inches Hg (1026.0 mb)
Winds: from the ESE (120 degrees) at 5 MPH (4 knots; 2.1 m/s)
Visibility: 6 or more miles (10+ km)
Ceiling: at least 12,000 feet AGL
Clouds: scattered clouds at 4300 feet AGL
Weather: no significant weather observed at this time

METAR text: USSS 191630Z VRB01MPS 9999 SCT033CB 16/16 Q1026 R08L/290035 NOSIG RMK QFE749/0999
Conditions at: USSS (EKATERINBURG , RU) observed 1630 UTC 19 August 2019
Temperature: 16.0°C (61°F)
Dewpoint: 16.0°C (61°F) [RH = 100%]
Pressure (altimeter): 30.30 inches Hg (1026.0 mb)
Winds: variable direction winds at 2 MPH (2 knots; 1.0 m/s)
Visibility: 6 or more miles (10+ km)
Ceiling: at least 12,000 feet AGL
Clouds: scattered clouds at 3300 feet AGL
Weather: no significant weather observed at this time

METAR text: USSS 191600Z 12002MPS 9999 SCT030CB 16/16 Q1026 R08L/290035 NOSIG RMK QFE749/0999
Conditions at: USSS (EKATERINBURG , RU) observed 1600 UTC 19 August 2019
Temperature: 16.0°C (61°F)
Dewpoint: 16.0°C (61°F) [RH = 100%]
Pressure (altimeter): 30.30 inches Hg (1026.0 mb)
Winds: from the ESE (120 degrees) at 5 MPH (4 knots; 2.1 m/s)
Visibility: 6 or more miles (10+ km)
Ceiling: at least 12,000 feet AGL
Clouds: scattered clouds at 3000 feet AGL
Weather: no significant weather observed at this time

METAR text: USSS 191530Z 13002MPS 9999 SCT030CB 17/16 Q1026 R08L/290035 NOSIG RMK QFE749/0999
Conditions at: USSS (EKATERINBURG , RU) observed 1530 UTC 19 August 2019
Temperature: 17.0°C (63°F)
Dewpoint: 16.0°C (61°F) [RH = 94%]
Pressure (altimeter): 30.30 inches Hg (1026.0 mb)
Winds: from the SE (130 degrees) at 5 MPH (4 knots; 2.1 m/s)
Visibility: 6 or more miles (10+ km)
Ceiling: at least 12,000 feet AGL
Clouds: scattered clouds at 3000 feet AGL
Weather: no significant weather observed at this time

METAR text: USSS 191500Z 12002MPS 9999 -SHRA BKN020CB 17/16 Q1026 R08L/290035 NOSIG RMK QFE749/0999
Conditions at: USSS (EKATERINBURG , RU) observed 1500 UTC 19 August 2019
Temperature: 17.0°C (63°F)
Dewpoint: 16.0°C (61°F) [RH = 94%]
Pressure (altimeter): 30.30 inches Hg (1026.0 mb)
Winds: from the ESE (120 degrees) at 5 MPH (4 knots; 2.1 m/s)
Visibility: 6 or more miles (10+ km)
Ceiling: 2000 feet AGL
Clouds: broken clouds at 2000 feet AGL
Weather: -SHRA  (light rain showers)

METAR text: USSS 191430Z 09002MPS 9999 -SHRA BKN030CB 17/16 Q1026 R08L/290035 NOSIG RMK QFE749/0999
Conditions at: USSS (EKATERINBURG , RU) observed 1430 UTC 19 August 2019
Temperature: 17.0°C (63°F)
Dewpoint: 16.0°C (61°F) [RH = 94%]
Pressure (altimeter): 30.30 inches Hg (1026.0 mb)
Winds: from the E (90 degrees) at 5 MPH (4 knots; 2.1 m/s)
Visibility: 6 or more miles (10+ km)
Ceiling: 3000 feet AGL
Clouds: broken clouds at 3000 feet AGL
Weather: -SHRA  (light rain showers)

METAR text: USSS 191400Z 07002MPS 9999 -SHRA BKN023CB 17/16 Q1026 R08L/290035 NOSIG RMK QFE749/0999
Conditions at: USSS (EKATERINBURG , RU) observed 1400 UTC 19 August 2019
Temperature: 17.0°C (63°F)
Dewpoint: 16.0°C (61°F) [RH = 94%]
Pressure (altimeter): 30.30 inches Hg (1026.0 mb)
Winds: from the ENE (70 degrees) at 5 MPH (4 knots; 2.1 m/s)
Visibility: 6 or more miles (10+ km)
Ceiling: 2300 feet AGL
Clouds: broken clouds at 2300 feet AGL
Weather: -SHRA  (light rain showers)

METAR text: USSS 191330Z 08002MPS 9999 -SHRA BKN024CB 18/17 Q1026 R08L/290035 NOSIG RMK QFE749/0999
Conditions at: USSS (EKATERINBURG , RU) observed 1330 UTC 19 August 2019
Temperature: 18.0°C (64°F)
Dewpoint: 17.0°C (63°F) [RH = 94%]
Pressure (altimeter): 30.30 inches Hg (1026.0 mb)
Winds: from the E (80 degrees) at 5 MPH (4 knots; 2.1 m/s)
Visibility: 6 or more miles (10+ km)
Ceiling: 2400 feet AGL
Clouds: broken clouds at 2400 feet AGL
Weather: -SHRA  (light rain showers)

METAR text: USSS 191300Z VRB01MPS 9999 SCT025CB 18/16 Q1026 R08L/290035 NOSIG RMK QFE750/1000
Conditions at: USSS (EKATERINBURG , RU) observed 1300 UTC 19 August 2019
Temperature: 18.0°C (64°F)
Dewpoint: 16.0°C (61°F) [RH = 88%]
Pressure (altimeter): 30.30 inches Hg (1026.0 mb)
Winds: variable direction winds at 2 MPH (2 knots; 1.0 m/s)
Visibility: 6 or more miles (10+ km)
Ceiling: at least 12,000 feet AGL
Clouds: scattered clouds at 2500 feet AGL
Weather: no significant weather observed at this time

METAR text: USSS 191230Z 10002MPS 9999 -SHRA SCT036CB 18/17 Q1026 R08L/290035 NOSIG RMK QFE749/0999
Conditions at: USSS (EKATERINBURG , RU) observed 1230 UTC 19 August 2019
Temperature: 18.0°C (64°F)
Dewpoint: 17.0°C (63°F) [RH = 94%]
Pressure (altimeter): 30.30 inches Hg (1026.0 mb)
Winds: from the E (100 degrees) at 5 MPH (4 knots; 2.1 m/s)
Visibility: 6 or more miles (10+ km)
Ceiling: at least 12,000 feet AGL
Clouds: scattered clouds at 3600 feet AGL
Weather: -SHRA  (light rain showers)

METAR text: USSS 191200Z 11002MPS 080V150 9999 SCT024CB 18/17 Q1026 R08L/290035 NOSIG RMK QFE749/0999
Conditions at: USSS (EKATERINBURG , RU) observed 1200 UTC 19 August 2019
Temperature: 18.0°C (64°F)
Dewpoint: 17.0°C (63°F) [RH = 94%]
Pressure (altimeter): 30.30 inches Hg (1026.0 mb)
Winds: from the ESE (110 degrees) at 5 MPH (4 knots; 2.1 m/s)
Visibility: 6 or more miles (10+ km)
Ceiling: at least 12,000 feet AGL
Clouds: scattered clouds at 2400 feet AGL
Weather: no significant weather observed at this time

METAR text: USSS 191130Z 10002MPS 070V130 9999 SCT024CB 18/17 Q1026 R08L/290035 NOSIG RMK QFE749/0999
Conditions at: USSS (EKATERINBURG , RU) observed 1130 UTC 19 August 2019
Temperature: 18.0°C (64°F)
Dewpoint: 17.0°C (63°F) [RH = 94%]
Pressure (altimeter): 30.30 inches Hg (1026.0 mb)
Winds: from the E (100 degrees) at 5 MPH (4 knots; 2.1 m/s)
Visibility: 6 or more miles (10+ km)
Ceiling: at least 12,000 feet AGL
Clouds: scattered clouds at 2400 feet AGL
Weather: no significant weather observed at this time

METAR text: USSS 191100Z VRB01MPS 9999 BKN026CB 18/17 Q1026 R08L/290035 NOSIG RMK QFE749/0999
Conditions at: USSS (EKATERINBURG , RU) observed 1100 UTC 19 August 2019
Temperature: 18.0°C (64°F)
Dewpoint: 17.0°C (63°F) [RH = 94%]
Pressure (altimeter): 30.30 inches Hg (1026.0 mb)
Winds: variable direction winds at 2 MPH (2 knots; 1.0 m/s)
Visibility: 6 or more miles (10+ km)
Ceiling: 2600 feet AGL
Clouds: broken clouds at 2600 feet AGL
Weather: no significant weather observed at this time

METAR text: USSS 191030Z 08003MPS 040V110 9999 -SHRA BKN026CB 18/17 Q1026 R08L/290035 NOSIG RMK QFE749/0999
Conditions at: USSS (EKATERINBURG , RU) observed 1030 UTC 19 August 2019
Temperature: 18.0°C (64°F)
Dewpoint: 17.0°C (63°F) [RH = 94%]
Pressure (altimeter): 30.30 inches Hg (1026.0 mb)
Winds: from the E (80 degrees) at 7 MPH (6 knots; 3.1 m/s)
Visibility: 6 or more miles (10+ km)
Ceiling: 2600 feet AGL
Clouds: broken clouds at 2600 feet AGL
Weather: -SHRA  (light rain showers)

METAR text: USSS 191000Z 09005MPS 9999 -SHRA BKN026CB 18/17 Q1025 R08L/290037 NOSIG RMK QFE749/0999
Conditions at: USSS (EKATERINBURG , RU) observed 1000 UTC 19 August 2019
Temperature: 18.0°C (64°F)
Dewpoint: 17.0°C (63°F) [RH = 94%]
Pressure (altimeter): 30.27 inches Hg (1025.0 mb)
Winds: from the E (90 degrees) at 12 MPH (10 knots; 5.1 m/s)
Visibility: 6 or more miles (10+ km)
Ceiling: 2600 feet AGL
Clouds: broken clouds at 2600 feet AGL
Weather: -SHRA  (light rain showers)

Forecast for: AMD
Text: TAF AMD USSS 202022Z 2020/2121 06003G12MPS 3100 -SHRA BR BKN004 SCT015CB
Forecast period: 2000 UTC 20 August 2019 to 0600 UTC 21 August 2019
Forecast type: FROM: standard forecast or significant change
Winds: from the ENE (60 degrees) at 7 MPH (6 knots; 3.1 m/s)
gusting to 26 MPH (23 knots; 11.8 m/s)
Visibility: 1.93 miles (3.11 km)
Ceiling: 400 feet AGL
Clouds: broken clouds at 400 feet AGL
scattered clouds at 1500 feet AGL
Weather: -SHRA BR  (light rain showers, mist)
Text: TEMPO 2020/2023 -TSRA BKN002 BKN011CB
Forecast period: 2000 to 2300 UTC 20 August 2019
Forecast type: TEMPORARY: The following changes expected for less than half the time period
Visibility: missing
Ceiling: 200 feet AGL
Clouds: broken clouds at 200 feet AGL
broken clouds at 1100 feet AGL
Weather: -TSRA  (light rain associated with thunderstorm(s))
Text: TEMPO 2023/2104 0300 FG VV002
Forecast period: 2300 UTC 20 August 2019 to 0400 UTC 21 August 2019
Forecast type: TEMPORARY: The following changes expected for less than half the time period
Visibility: 0.19 miles (0.31 km)
Ceiling: indefinite ceiling with vertical visibility of 200 feet AGL
Clouds: obscured sky
Weather: FG  (fog)
Text: FM210600 04003G13MPS 9999 SCT011
Forecast period: 0600 to 1600 UTC 21 August 2019
Forecast type: FROM: standard forecast or significant change
Winds: from the NE (40 degrees) at 7 MPH (6 knots; 3.1 m/s)
gusting to 29 MPH (25 knots; 12.9 m/s)
Visibility: 6 or more miles 10+ km)
Ceiling: at least 12,000 feet AGL
Clouds: scattered clouds at 1100 feet AGL
Weather: no significant weather forecast for this period
Text: FM211600 01003G08MPS 3100 BR BKN011
Forecast period: 1600 to 2100 UTC 21 August 2019
Forecast type: FROM: standard forecast or significant change
Winds: from the N (10 degrees) at 7 MPH (6 knots; 3.1 m/s)
gusting to 18 MPH (16 knots; 8.2 m/s)
Visibility: 1.93 miles (3.11 km)
Ceiling: 1100 feet AGL
Clouds: broken clouds at 1100 feet AGL
Weather: BR  (mist)